Time;durP1;ratioP1;P1;durP2;ratioP2;P2;SDS_P1;SDS_P2;PMS_P1;PMS_P2;Temp;Humidity;BMP_temperature;BMP_pressure;BME280_temperature;BME280_humidity;BME280_pressure;Samples;Min_cycle;Max_cycle;Signal;HPM_P1;HPM_P2
2021/12/05 00:24:36;;;;;;;30.58;13.48;;;5.40;99.90;;;;;;5120242;27;20152;-74
2021/12/05 00:27:06;;;;;;;;;;;5.40;99.90;;;;;;5133425;27;20206;-74
2021/12/05 00:29:48;;;;;;;24.08;12.00;;;5.30;99.90;;;;;;5134850;27;19968;-73
2021/12/05 00:32:23;;;;;;;24.45;12.15;;;5.40;99.90;;;;;;5134808;27;20106;-74
2021/12/05 00:43:23;;;;;;;23.10;10.75;;;5.30;99.90;;;;;;5133747;27;20380;-74
2021/12/05 00:46:20;;;;;;;23.48;10.73;;;5.30;99.90;;;;;;5132996;27;20079;-74
2021/12/05 01:02:40;;;;;;;18.42;9.75;;;5.20;99.90;;;;;;5134233;28;20071;-74
2021/12/05 01:15:42;;;;;;;17.83;9.15;;;5.10;99.90;;;;;;5133736;28;20122;-74
2021/12/05 01:18:13;;;;;;;15.05;8.00;;;5.10;99.90;;;;;;5134133;27;20070;-74
2021/12/05 01:20:43;;;;;;;18.65;8.95;;;5.10;99.90;;;;;;5134551;27;20496;-74
2021/12/05 01:23:35;;;;;;;17.38;8.38;;;5.10;99.90;;;;;;5133552;28;20051;-74
2021/12/05 01:26:13;;;;;;;20.00;9.55;;;5.00;99.90;;;;;;5115173;28;20042;-74
2021/12/05 01:36:57;;;;;;;11.50;8.13;;;5.00;99.90;;;;;;5074247;28;20533;-74
2021/12/05 01:52:56;;;;;;;13.93;7.80;;;4.70;99.90;;;;;;5132537;28;20281;-74
2021/12/05 01:55:47;;;;;;;9.85;6.68;;;4.70;99.90;;;;;;5133886;27;20508;-74
2021/12/05 02:09:21;;;;;;;15.68;7.45;;;4.80;99.90;;;;;;5136327;27;20047;-74
2021/12/05 02:41:29;;;;;;;18.65;9.43;;;4.90;99.90;;;;;;5120154;27;20043;-74
2021/12/05 02:44:05;;;;;;;10.90;7.47;;;4.90;99.90;;;;;;5118505;27;20112;-74
2021/12/05 02:46:31;;;;;;;13.40;7.13;;;5.00;99.90;;;;;;5136423;27;20054;-74
2021/12/05 02:49:03;;;;;;;14.88;7.45;;;4.90;99.90;;;;;;5118239;27;20046;-74
2021/12/05 02:51:31;;;;;;;15.80;7.90;;;5.00;99.90;;;;;;5118325;27;20100;-74
2021/12/05 02:56:31;;;;;;;16.90;9.48;;;4.90;99.90;;;;;;5136179;27;20400;-74
2021/12/05 02:59:04;;;;;;;17.02;9.55;;;4.90;99.90;;;;;;5137005;27;20084;-74
2021/12/05 03:01:37;;;;;;;13.63;7.25;;;4.80;99.90;;;;;;5118021;27;20077;-74
2021/12/05 03:04:06;;;;;;;14.95;8.35;;;4.80;99.90;;;;;;5136551;27;20071;-74
2021/12/05 03:06:33;;;;;;;14.73;7.57;;;4.80;99.90;;;;;;5134588;27;20047;-74
2021/12/05 03:09:03;;;;;;;16.50;8.13;;;4.80;99.90;;;;;;5136159;27;20456;-74
2021/12/05 03:11:30;;;;;;;14.55;7.40;;;4.80;99.90;;;;;;5136308;27;20404;-74
2021/12/05 03:13:56;;;;;;;16.88;8.50;;;4.80;99.90;;;;;;5136096;27;20441;-74
2021/12/05 03:16:24;;;;;;;15.57;8.68;;;4.90;99.90;;;;;;5134624;27;20115;-73
2021/12/05 03:18:50;;;;;;;17.67;9.10;;;4.90;99.90;;;;;;5134934;27;20465;-74
2021/12/05 03:21:17;;;;;;;12.55;8.35;;;4.90;99.90;;;;;;5136122;27;20043;-74
2021/12/05 03:23:46;;;;;;;16.73;9.00;;;4.90;99.90;;;;;;5136118;27;20038;-74
2021/12/05 03:26:16;;;;;;;22.85;9.52;;;4.90;99.90;;;;;;5135491;27;20416;-74
2021/12/05 03:28:42;;;;;;;18.20;8.93;;;4.90;99.90;;;;;;5136001;27;20108;-74
2021/12/05 03:31:08;;;;;;;18.98;9.20;;;4.90;99.90;;;;;;5136215;27;20113;-74
2021/12/05 03:33:35;;;;;;;14.45;10.35;;;4.80;99.90;;;;;;5134640;27;20042;-73
2021/12/05 03:36:03;;;;;;;20.08;10.02;;;4.80;99.90;;;;;;5135190;27;20382;-74
2021/12/05 03:38:29;;;;;;;17.73;9.48;;;4.80;99.90;;;;;;5135558;27;20469;-74
2021/12/05 03:40:55;;;;;;;14.23;8.70;;;4.90;99.90;;;;;;5117080;27;20042;-74
2021/12/05 03:43:20;;;;;;;17.27;9.02;;;4.90;99.90;;;;;;5135852;27;20047;-74
2021/12/05 03:45:56;;;;;;;14.48;9.48;;;4.90;99.90;;;;;;5134246;27;20031;-74
2021/12/05 03:48:25;;;;;;;18.95;10.40;;;4.90;99.90;;;;;;5134368;27;20145;-74
2021/12/05 03:50:52;;;;;;;23.02;11.18;;;4.90;99.90;;;;;;5135461;27;20403;-74
2021/12/05 03:53:18;;;;;;;24.02;12.57;;;4.80;99.90;;;;;;5135388;27;20035;-74
2021/12/05 03:55:47;;;;;;;19.52;10.70;;;4.80;99.90;;;;;;5135147;27;20438;-74
2021/12/05 03:58:13;;;;;;;20.17;11.57;;;4.90;99.90;;;;;;5135070;27;20418;-73
2021/12/05 04:00:41;;;;;;;19.08;10.32;;;4.80;99.90;;;;;;5135238;27;20043;-74
2021/12/05 04:03:14;;;;;;;24.45;12.60;;;4.80;99.90;;;;;;5135162;27;20058;-74
2021/12/05 04:05:40;;;;;;;23.30;12.45;;;4.90;99.90;;;;;;5134781;27;20477;-74
2021/12/05 04:08:09;;;;;;;26.40;13.55;;;4.90;99.90;;;;;;5135466;27;20039;-74
2021/12/05 04:10:38;;;;;;;23.73;12.18;;;4.80;99.90;;;;;;5134826;27;20039;-74
2021/12/05 04:13:04;;;;;;;24.50;13.95;;;4.80;99.90;;;;;;5133742;27;20039;-74
2021/12/05 04:15:29;;;;;;;27.15;13.98;;;4.80;99.90;;;;;;5133515;27;20054;-74
2021/12/05 04:17:55;;;;;;;23.15;13.50;;;4.80;99.90;;;;;;5133607;27;20051;-74
2021/12/05 04:20:21;;;;;;;24.00;13.52;;;4.70;99.90;;;;;;5133741;27;20046;-74
2021/12/05 04:22:48;;;;;;;24.65;14.05;;;4.70;99.90;;;;;;5134896;27;20042;-74
2021/12/05 04:25:16;;;;;;;23.55;12.98;;;4.70;99.90;;;;;;5134859;27;20042;-74
2021/12/05 04:27:45;;;;;;;24.17;15.02;;;4.70;99.90;;;;;;5134106;27;20507;-74
2021/12/05 04:30:13;;;;;;;26.45;14.70;;;4.70;99.90;;;;;;5133537;27;20110;-74
2021/12/05 04:32:39;;;;;;;26.52;14.23;;;4.70;99.90;;;;;;5134619;27;20070;-74
2021/12/05 04:35:05;;;;;;;30.67;15.40;;;4.70;99.90;;;;;;5134567;27;20035;-74
2021/12/05 04:37:31;;;;;;;27.70;13.77;;;4.70;99.90;;;;;;5134583;27;20035;-74
2021/12/05 04:39:57;;;;;;;27.92;13.68;;;4.80;99.90;;;;;;5134386;27;20045;-74
2021/12/05 04:42:23;;;;;;;30.52;15.80;;;4.70;99.90;;;;;;5134756;27;20049;-74
2021/12/05 04:44:49;;;;;;;27.70;15.25;;;4.70;99.90;;;;;;5133667;27;20039;-74
2021/12/05 04:47:15;;;;;;;25.00;13.98;;;4.70;99.90;;;;;;5115649;27;20039;-74
2021/12/05 04:49:41;;;;;;;28.13;15.40;;;4.60;99.90;;;;;;5134170;27;20103;-74
2021/12/05 04:52:09;;;;;;;37.97;16.30;;;4.60;99.90;;;;;;5134366;27;20043;-73
2021/12/05 04:54:35;;;;;;;28.60;16.90;;;4.60;99.90;;;;;;5133572;27;20468;-74
2021/12/05 04:57:01;;;;;;;31.55;15.77;;;4.60;99.90;;;;;;5133831;27;20050;-74
2021/12/05 04:59:28;;;;;;;34.60;16.42;;;4.60;99.90;;;;;;5134653;27;20034;-74
2021/12/05 05:01:58;;;;;;;26.80;15.32;;;4.60;99.90;;;;;;5132918;27;20073;-74
2021/12/05 05:04:28;;;;;;;26.15;14.95;;;4.60;99.90;;;;;;5132998;27;20039;-74
2021/12/05 05:07:01;;;;;;;28.60;16.60;;;4.60;99.90;;;;;;5132575;28;20124;-74
2021/12/05 05:09:28;;;;;;;24.67;14.45;;;4.60;99.90;;;;;;5134296;27;20519;-74
2021/12/05 05:11:54;;;;;;;25.98;13.60;;;4.60;99.90;;;;;;5133065;28;20122;-74
2021/12/05 05:14:20;;;;;;;26.40;14.93;;;4.60;99.90;;;;;;5134132;27;20401;-74
2021/12/05 05:16:48;;;;;;;25.15;13.98;;;4.60;99.90;;;;;;5133607;27;20039;-74
2021/12/05 05:19:16;;;;;;;28.13;14.65;;;4.60;99.90;;;;;;5133970;27;20035;-73
2021/12/05 05:21:52;;;;;;;31.27;14.82;;;4.60;99.90;;;;;;5132633;28;20039;-74
2021/12/05 05:40:19;;;;;;;22.58;11.45;;;4.60;99.90;;;;;;5137286;27;20043;-73
2021/12/05 05:45:51;;;;;;;22.33;11.85;;;4.60;99.90;;;;;;5137941;27;20043;-74
2021/12/05 05:48:41;;;;;;;21.65;12.18;;;4.60;99.90;;;;;;5136729;27;20122;-74
2021/12/05 05:51:05;;;;;;;25.80;12.32;;;4.60;99.90;;;;;;5136309;27;20120;-73
2021/12/05 05:53:31;;;;;;;21.20;10.48;;;4.60;99.90;;;;;;5136700;27;20122;-74
2021/12/05 05:55:57;;;;;;;23.50;11.68;;;4.60;99.90;;;;;;5119171;27;20164;-74
2021/12/05 06:04:04;;;;;;;19.23;10.07;;;4.50;99.90;;;;;;5128326;27;20051;-74
2021/12/05 06:06:32;;;;;;;23.13;10.38;;;4.50;99.90;;;;;;5137132;27;20050;-73
2021/12/05 06:08:58;;;;;;;18.13;10.45;;;4.50;99.90;;;;;;5136011;27;20092;-74
2021/12/05 06:11:24;;;;;;;23.02;9.63;;;4.50;99.90;;;;;;5135934;27;20507;-73
2021/12/05 06:13:50;;;;;;;17.85;8.98;;;4.50;99.90;;;;;;5137525;27;20043;-73
2021/12/05 06:16:16;;;;;;;21.13;9.18;;;4.50;99.90;;;;;;5137237;27;20412;-73
2021/12/05 06:18:43;;;;;;;21.48;9.82;;;4.50;99.90;;;;;;5137963;27;20152;-74
2021/12/05 06:21:10;;;;;;;23.60;9.50;;;4.50;99.90;;;;;;5137631;27;20035;-74
2021/12/05 06:23:36;;;;;;;15.38;9.38;;;4.50;99.90;;;;;;5135889;27;20047;-73
2021/12/05 06:26:03;;;;;;;20.95;9.93;;;4.50;99.90;;;;;;5135364;27;20066;-74
2021/12/05 06:28:36;;;;;;;18.05;8.63;;;4.50;99.90;;;;;;5137159;27;20043;-74
2021/12/05 06:39:41;;;;;;;18.67;8.43;;;4.60;99.90;;;;;;5137199;27;20047;-73
2021/12/05 06:47:36;;;;;;;16.85;8.48;;;4.50;99.90;;;;;;5136285;27;20065;-74
2021/12/05 06:50:02;;;;;;;19.25;8.43;;;4.50;99.90;;;;;;5136470;27;20496;-74
2021/12/05 06:52:28;;;;;;;17.55;8.10;;;4.60;99.90;;;;;;5136442;27;20038;-73
2021/12/05 06:54:54;;;;;;;20.95;9.60;;;4.50;99.90;;;;;;5136523;27;20039;-74
2021/12/05 06:57:19;;;;;;;15.32;8.15;;;4.50;99.90;;;;;;5136026;27;20035;-73
2021/12/05 06:59:48;;;;;;;18.42;7.20;;;4.50;99.90;;;;;;5136513;27;20121;-73
2021/12/05 07:02:16;;;;;;;19.63;8.18;;;4.60;99.90;;;;;;5136830;27;20118;-73
2021/12/05 07:07:14;;;;;;;22.77;9.93;;;4.60;99.90;;;;;;5135969;27;20039;-73
2021/12/05 07:09:41;;;;;;;20.40;8.00;;;4.60;99.90;;;;;;5134944;27;20051;-73
2021/12/05 07:15:01;;;;;;;18.25;8.57;;;4.60;99.90;;;;;;5135166;27;20059;-74
2021/12/05 07:20:21;;;;;;;16.40;8.18;;;4.60;99.90;;;;;;5136631;27;20434;-74
2021/12/05 07:25:43;;;;;;;17.25;8.18;;;4.60;99.90;;;;;;5136199;27;19915;-74
2021/12/05 07:42:03;;;;;;;19.95;8.43;;;4.60;99.90;;;;;;5134368;27;20051;-73
2021/12/05 07:44:28;;;;;;;17.90;7.80;;;4.60;99.90;;;;;;5134187;27;20043;-73
2021/12/05 07:46:54;;;;;;;22.73;7.70;;;4.60;99.90;;;;;;5116694;27;20051;-73
2021/12/05 07:49:21;;;;;;;20.70;9.27;;;4.60;99.90;;;;;;5135343;27;20035;-72
2021/12/05 07:51:48;;;;;;;19.08;9.05;;;4.60;99.90;;;;;;5135410;27;20110;-72
2021/12/05 07:57:28;;;;;;;16.60;8.45;;;4.50;99.90;;;;;;5074919;28;20040;-73
2021/12/05 08:00:10;;;;;;;21.98;9.48;;;4.50;99.90;;;;;;5129956;27;20062;-72
2021/12/05 08:16:24;;;;;;;16.05;8.73;;;4.50;99.90;;;;;;5133338;27;20401;-73
2021/12/05 08:18:50;;;;;;;25.48;10.57;;;4.50;99.90;;;;;;5134729;27;20035;-72
2021/12/05 08:21:15;;;;;;;23.42;11.45;;;4.50;99.90;;;;;;5132057;27;20096;-73
2021/12/05 08:23:41;;;;;;;29.92;13.45;;;4.50;99.90;;;;;;5134878;27;20484;-72
2021/12/05 08:26:15;;;;;;;22.85;11.73;;;4.50;99.90;;;;;;5132786;27;20039;-73
2021/12/05 08:31:38;;;;;;;20.77;11.10;;;4.60;99.90;;;;;;5134712;27;20039;-73
2021/12/05 08:41:53;;;;;;;25.35;11.48;;;4.60;99.90;;;;;;5134828;27;20079;-72
2021/12/05 09:24:47;;;;;;;20.95;10.55;;;4.90;99.90;;;;;;5136829;27;20039;-72
2021/12/05 09:30:22;;;;;;;16.98;10.30;;;4.90;99.90;;;;;;5136591;27;20087;-72
2021/12/05 09:38:56;;;;;;;23.42;11.60;;;4.80;99.90;;;;;;5138092;27;20038;-72
2021/12/05 10:11:45;;;;;;;23.65;12.23;;;4.90;99.90;;;;;;5137246;27;20043;-72
2021/12/05 10:14:45;;;;;;;21.02;10.68;;;4.90;99.90;;;;;;5137483;27;20114;-72
2021/12/05 10:34:44;;;;;;;21.27;9.98;;;5.00;99.90;;;;;;5137108;27;20035;-71
2021/12/05 10:37:19;;;;;;;21.98;10.75;;;5.00;99.90;;;;;;5115954;28;20044;-73
2021/12/05 10:39:46;;;;;;;21.67;11.32;;;5.00;99.90;;;;;;5116321;28;20074;-74
2021/12/05 10:42:34;;;;;;;21.88;11.02;;;4.90;99.90;;;;;;5116291;28;20039;-74
2021/12/05 10:45:00;;;;;;;20.33;11.20;;;5.00;99.90;;;;;;5116144;28;20401;-73
2021/12/05 10:47:37;;;;;;;21.73;10.38;;;5.00;99.90;;;;;;5115717;28;20096;-73
2021/12/05 10:50:34;;;;;;;22.25;11.40;;;5.00;99.90;;;;;;5115761;28;20043;-73
2021/12/05 10:53:18;;;;;;;22.02;13.13;;;5.00;99.90;;;;;;5115916;28;20043;-73
2021/12/05 10:55:44;;;;;;;24.40;12.15;;;5.00;99.90;;;;;;5116095;28;20100;-73
2021/12/05 10:58:10;;;;;;;21.65;11.07;;;5.10;99.90;;;;;;5115569;28;20039;-74
2021/12/05 11:00:36;;;;;;;24.30;10.32;;;5.10;99.90;;;;;;5115973;28;20135;-74
2021/12/05 11:03:18;;;;;;;23.35;11.60;;;5.00;99.90;;;;;;5116214;28;20457;-73
2021/12/05 11:05:45;;;;;;;22.92;12.13;;;5.10;99.90;;;;;;5114690;28;20047;-73
2021/12/05 11:08:50;;;;;;;22.10;11.68;;;5.00;99.90;;;;;;5115916;27;20054;-73
2021/12/05 11:11:17;;;;;;;29.55;13.30;;;5.10;99.90;;;;;;5055970;28;20041;-73
2021/12/05 11:13:45;;;;;;;29.13;12.25;;;5.10;99.90;;;;;;5108430;27;20058;-73
2021/12/05 11:16:40;;;;;;;30.27;14.82;;;5.00;99.90;;;;;;5115197;28;20093;-73
2021/12/05 11:19:40;;;;;;;27.95;12.50;;;5.10;99.90;;;;;;5113917;28;20075;-73
2021/12/05 11:22:30;;;;;;;23.98;12.55;;;5.10;99.90;;;;;;5112632;28;20353;-73
2021/12/05 11:24:58;;;;;;;25.05;13.15;;;5.20;99.90;;;;;;5114069;28;20097;-73
2021/12/05 11:27:48;;;;;;;21.95;12.43;;;5.20;99.90;;;;;;5114883;28;20480;-73
2021/12/05 11:30:20;;;;;;;32.20;14.82;;;5.20;99.90;;;;;;5115062;28;20042;-74
2021/12/05 11:32:45;;;;;;;26.20;13.43;;;5.20;99.90;;;;;;5115391;28;20043;-75
2021/12/05 11:35:28;;;;;;;30.25;13.40;;;5.20;99.90;;;;;;5113950;28;20104;-74
2021/12/05 11:38:07;;;;;;;29.15;12.98;;;5.30;99.90;;;;;;5114171;28;20040;-74
2021/12/05 11:40:59;;;;;;;25.88;11.65;;;5.30;99.90;;;;;;5115470;28;20043;-73
2021/12/05 11:43:33;;;;;;;25.20;12.45;;;5.30;99.90;;;;;;5114867;28;20088;-74
2021/12/05 11:45:59;;;;;;;27.58;13.82;;;5.30;99.90;;;;;;5114559;28;20047;-73
2021/12/05 11:48:30;;;;;;;27.33;13.65;;;5.30;99.90;;;;;;5115034;28;20454;-73
2021/12/05 11:50:57;;;;;;;28.67;12.77;;;5.30;99.90;;;;;;5115518;27;20419;-75
2021/12/05 11:53:48;;;;;;;24.35;12.85;;;5.40;99.90;;;;;;5134960;27;20035;-73
2021/12/05 11:56:29;;;;;;;24.67;13.68;;;5.40;99.90;;;;;;5134952;27;20035;-73
2021/12/05 11:59:44;;;;;;;23.90;12.75;;;5.30;99.90;;;;;;5134280;27;20043;-72
2021/12/05 12:02:15;;;;;;;28.52;13.45;;;5.30;99.90;;;;;;5106374;27;20050;-72
2021/12/05 12:04:54;;;;;;;31.67;14.55;;;5.40;99.90;;;;;;5135540;27;20043;-72
2021/12/05 12:07:40;;;;;;;24.40;12.25;;;5.40;99.90;;;;;;5134823;27;20092;-72
2021/12/05 12:10:14;;;;;;;23.77;12.82;;;5.40;99.90;;;;;;5134071;27;20043;-72
2021/12/05 12:12:42;;;;;;;;;;;5.40;99.90;;;;;;5135412;27;20498;-72
2021/12/05 12:15:09;;;;;;;26.58;11.95;;;5.40;99.90;;;;;;5135201;27;19916;-73
2021/12/05 12:17:35;;;;;;;22.77;12.93;;;5.50;99.90;;;;;;5134513;27;20047;-72
2021/12/05 12:20:01;;;;;;;25.85;12.75;;;5.40;99.90;;;;;;5135024;27;20031;-73
2021/12/05 12:22:28;;;;;;;25.25;12.93;;;5.50;99.90;;;;;;5135105;27;20038;-73
2021/12/05 12:25:00;;;;;;;22.77;13.07;;;5.60;99.90;;;;;;5134756;27;20495;-73
2021/12/05 12:27:26;;;;;;;25.52;12.05;;;5.60;99.90;;;;;;5134331;27;20039;-73
2021/12/05 12:29:58;;;;;;;24.40;12.63;;;5.60;99.90;;;;;;5134804;27;20086;-73
2021/12/05 12:32:29;;;;;;;24.35;11.63;;;5.60;99.90;;;;;;5134757;27;20027;-72
2021/12/05 12:35:13;;;;;;;27.80;12.25;;;5.60;99.90;;;;;;5134581;27;20083;-72
2021/12/05 12:38:09;;;;;;;27.70;12.52;;;5.70;99.90;;;;;;5134374;27;20035;-72
2021/12/05 12:40:57;;;;;;;21.52;11.27;;;5.70;99.90;;;;;;5134534;27;20118;-71
2021/12/05 12:43:38;;;;;;;24.10;12.32;;;5.70;99.90;;;;;;5135021;27;20042;-72
2021/12/05 12:46:15;;;;;;;22.02;11.60;;;5.70;99.90;;;;;;5133411;27;20118;-72
2021/12/05 12:48:41;;;;;;;24.45;11.20;;;5.70;99.90;;;;;;5134492;27;20062;-72
2021/12/05 12:51:07;;;;;;;23.95;11.20;;;5.70;99.90;;;;;;5132891;27;20473;-72
2021/12/05 12:53:38;;;;;;;16.60;9.90;;;5.70;99.90;;;;;;5133054;27;20513;-72
2021/12/05 12:56:19;;;;;;;18.73;10.52;;;5.70;99.90;;;;;;5134017;27;20109;-73
2021/12/05 12:58:48;;;;;;;16.67;9.73;;;5.80;99.90;;;;;;5134199;27;20047;-72
2021/12/05 13:01:39;;;;;;;19.00;9.48;;;5.80;99.90;;;;;;5134638;27;20047;-72
2021/12/05 13:10:18;;;;;;;16.88;8.98;;;5.80;99.90;;;;;;5099329;27;20493;-75
2021/12/05 13:12:47;;;;;;;14.80;7.82;;;5.90;99.90;;;;;;5134597;27;20046;-74
2021/12/05 13:15:50;;;;;;;16.77;9.80;;;5.90;99.90;;;;;;5134169;27;20091;-74
2021/12/05 13:18:25;;;;;;;13.75;8.10;;;5.90;99.90;;;;;;5132654;28;20084;-74
2021/12/05 13:21:08;;;;;;;15.63;7.88;;;5.90;99.90;;;;;;5133983;27;20066;-74
2021/12/05 13:23:45;;;;;;;14.43;8.38;;;6.00;99.90;;;;;;5134289;27;20039;-74
2021/12/05 13:26:11;;;;;;;17.77;7.55;;;6.00;99.90;;;;;;5133779;27;20043;-74
2021/12/05 13:28:40;;;;;;;19.30;7.88;;;6.00;99.90;;;;;;5134017;27;20054;-74
2021/12/05 13:31:28;;;;;;;17.02;8.85;;;6.00;99.90;;;;;;5133891;27;20054;-74
2021/12/05 13:34:15;;;;;;;15.80;8.95;;;6.00;99.90;;;;;;5133034;28;20082;-74
2021/12/05 13:36:49;;;;;;;12.50;8.07;;;6.00;99.90;;;;;;5133466;27;20491;-74
2021/12/05 13:39:39;;;;;;;15.32;8.25;;;5.90;99.90;;;;;;5134076;27;20542;-74
2021/12/05 13:42:11;;;;;;;14.18;6.82;;;5.90;99.90;;;;;;5132496;28;20051;-74
2021/12/05 13:44:58;;;;;;;15.13;7.13;;;5.90;99.90;;;;;;5132694;28;20458;-74
2021/12/05 13:47:29;;;;;;;12.27;7.53;;;5.90;99.90;;;;;;5132189;28;20043;-75
2021/12/05 13:49:56;;;;;;;10.52;6.93;;;5.90;99.90;;;;;;5134058;27;20031;-75
2021/12/05 13:52:36;;;;;;;15.48;8.23;;;5.90;99.90;;;;;;5133625;27;20042;-74
2021/12/05 13:55:39;;;;;;;10.52;6.82;;;5.90;99.90;;;;;;5134189;27;20035;-74
2021/12/05 13:58:24;;;;;;;10.50;6.50;;;6.00;99.90;;;;;;5132274;28;20047;-74
2021/12/05 14:01:00;;;;;;;13.77;7.82;;;5.90;99.90;;;;;;5135114;27;20449;-74
2021/12/05 14:03:48;;;;;;;12.57;7.80;;;5.90;99.90;;;;;;5137998;27;20035;-74
2021/12/05 14:06:28;;;;;;;16.10;9.18;;;5.90;99.90;;;;;;5135960;27;20190;-74
2021/12/05 14:08:59;;;;;;;16.08;7.78;;;5.80;99.90;;;;;;5137246;27;20046;-74
2021/12/05 14:11:26;;;;;;;14.55;7.45;;;5.90;99.90;;;;;;5136014;27;20530;-74
2021/12/05 14:13:52;;;;;;;13.95;7.82;;;5.90;99.90;;;;;;5118818;27;20047;-74
2021/12/05 14:16:19;;;;;;;12.90;7.85;;;5.90;99.90;;;;;;5137084;27;20593;-74
2021/12/05 14:18:47;;;;;;;12.73;7.68;;;5.90;99.90;;;;;;5136171;27;20043;-74
2021/12/05 14:21:18;;;;;;;17.35;7.97;;;5.80;99.90;;;;;;5137418;27;20035;-74
2021/12/05 14:23:58;;;;;;;13.43;7.53;;;5.80;99.90;;;;;;5136141;27;20043;-74
2021/12/05 14:26:26;;;;;;;11.25;7.32;;;5.90;99.90;;;;;;5136679;27;20404;-74
2021/12/05 14:29:01;;;;;;;12.38;8.02;;;5.80;99.90;;;;;;5135441;27;20034;-73
2021/12/05 14:31:29;;;;;;;9.95;7.78;;;5.90;99.90;;;;;;5114965;28;20071;-75
2021/12/05 14:33:56;;;;;;;14.95;7.97;;;5.90;99.90;;;;;;5115144;28;20031;-74
2021/12/05 14:36:32;;;;;;;23.50;9.57;;;5.80;99.90;;;;;;5114602;28;20039;-74
2021/12/05 14:39:15;;;;;;;14.80;8.10;;;5.80;99.90;;;;;;5116421;28;20085;-74
2021/12/05 14:41:42;;;;;;;13.60;8.32;;;5.80;99.90;;;;;;5114918;28;20492;-74
2021/12/05 14:44:08;;;;;;;13.23;8.30;;;5.80;99.90;;;;;;5116124;28;20115;-74
2021/12/05 14:46:33;;;;;;;19.67;9.15;;;5.80;99.90;;;;;;5115513;28;20063;-74
2021/12/05 14:49:04;;;;;;;16.40;8.82;;;5.80;99.90;;;;;;5116290;28;20043;-74
2021/12/05 14:51:39;;;;;;;18.58;9.45;;;5.80;99.90;;;;;;5114561;28;20048;-74
2021/12/05 14:54:06;;;;;;;16.13;10.32;;;5.80;99.90;;;;;;5116249;28;20027;-74
2021/12/05 14:56:35;;;;;;;21.33;9.93;;;5.70;99.90;;;;;;5114248;28;20084;-75
2021/12/05 14:59:09;;;;;;;17.17;9.50;;;5.70;99.90;;;;;;5115788;28;20415;-74
2021/12/05 15:01:37;;;;;;;14.43;9.90;;;5.70;99.90;;;;;;5114602;28;20040;-74
2021/12/05 15:04:06;;;;;;;16.08;11.02;;;5.70;99.90;;;;;;5115585;28;20043;-74
2021/12/05 15:06:35;;;;;;;21.27;12.32;;;5.70;99.90;;;;;;5115621;28;20043;-75
2021/12/05 15:09:07;;;;;;;21.92;12.38;;;5.70;99.90;;;;;;5115610;27;20048;-74
2021/12/05 15:11:33;;;;;;;22.58;13.20;;;5.70;99.90;;;;;;5114654;28;20043;-74
2021/12/05 15:14:07;;;;;;;23.58;12.32;;;5.70;99.90;;;;;;5116053;28;20040;-74
2021/12/05 15:16:32;;;;;;;21.23;12.68;;;5.80;99.90;;;;;;5113910;28;20092;-74
2021/12/05 15:18:59;;;;;;;25.80;12.70;;;5.70;99.90;;;;;;5115637;28;20118;-75
2021/12/05 15:21:27;;;;;;;22.63;12.75;;;5.80;99.90;;;;;;5115666;28;20043;-75
2021/12/05 15:23:53;;;;;;;19.55;11.98;;;5.70;99.90;;;;;;5115742;28;20046;-75
2021/12/05 15:26:18;;;;;;;24.02;12.25;;;5.80;99.90;;;;;;5113863;28;20039;-74
2021/12/05 15:28:44;;;;;;;32.63;13.32;;;5.80;99.90;;;;;;5115575;28;20027;-74
2021/12/05 15:31:10;;;;;;;23.23;13.20;;;5.70;99.90;;;;;;5097389;28;20088;-74
2021/12/05 15:33:37;;;;;;;29.92;14.40;;;5.60;99.90;;;;;;5113876;28;20047;-75
2021/12/05 15:36:03;;;;;;;25.50;13.80;;;5.60;99.90;;;;;;5114778;27;20043;-74
2021/12/05 15:38:30;;;;;;;25.85;14.20;;;5.60;99.90;;;;;;5114220;28;20138;-74
2021/12/05 15:41:00;;;;;;;26.75;14.10;;;5.60;99.90;;;;;;5114230;28;20050;-74
2021/12/05 15:43:28;;;;;;;26.25;14.52;;;5.60;99.90;;;;;;5115228;28;20072;-74
2021/12/05 15:45:56;;;;;;;27.02;14.93;;;5.50;99.90;;;;;;5115171;28;20073;-73
2021/12/05 15:48:23;;;;;;;25.42;14.88;;;5.50;99.90;;;;;;5114146;28;20469;-74
2021/12/05 15:50:51;;;;;;;28.00;14.50;;;5.60;99.90;;;;;;5113714;28;20088;-74
2021/12/05 15:53:17;;;;;;;29.92;14.85;;;5.60;99.90;;;;;;5114107;28;20484;-73
2021/12/05 15:55:46;;;;;;;28.15;14.60;;;5.50;99.90;;;;;;5114597;28;20039;-73
2021/12/05 15:58:22;;;;;;;31.63;15.20;;;5.60;99.90;;;;;;5113929;28;20066;-74
2021/12/05 16:00:53;;;;;;;31.95;15.55;;;5.50;99.90;;;;;;5115038;28;20040;-73
2021/12/05 16:03:23;;;;;;;23.88;14.68;;;5.50;99.90;;;;;;5113594;28;20516;-74
2021/12/05 16:05:58;;;;;;;29.40;16.27;;;5.50;99.90;;;;;;5114785;28;20169;-74
2021/12/05 16:08:28;;;;;;;33.00;17.60;;;5.50;99.90;;;;;;5113500;28;20099;-74
2021/12/05 16:10:58;;;;;;;32.35;16.55;;;5.50;99.90;;;;;;5113250;28;20053;-73
2021/12/05 16:13:30;;;;;;;26.83;15.45;;;5.50;99.90;;;;;;5114479;28;20118;-73
2021/12/05 16:16:11;;;;;;;25.23;15.25;;;5.40;99.90;;;;;;5113193;28;20120;-74
2021/12/05 16:18:38;;;;;;;30.83;16.42;;;5.50;99.90;;;;;;5114619;28;20378;-73
2021/12/05 16:21:32;;;;;;;29.52;16.40;;;5.50;99.90;;;;;;5114368;28;20032;-73
2021/12/05 16:24:06;;;;;;;26.90;16.90;;;5.40;99.90;;;;;;5114125;28;20046;-74
2021/12/05 16:26:31;;;;;;;28.85;16.73;;;5.30;99.90;;;;;;5114150;28;20078;-74
2021/12/05 16:29:04;;;;;;;24.90;16.35;;;5.40;99.90;;;;;;5113172;28;20082;-74
2021/12/05 16:31:40;;;;;;;26.08;15.68;;;5.40;99.90;;;;;;5114557;28;20045;-74
2021/12/05 16:34:17;;;;;;;27.35;16.33;;;5.40;99.90;;;;;;5115042;28;20036;-74
2021/12/05 16:36:47;;;;;;;28.30;16.17;;;5.30;99.90;;;;;;5113910;28;20039;-73
2021/12/05 16:39:18;;;;;;;33.30;16.95;;;5.20;99.90;;;;;;5114184;28;20398;-74
2021/12/05 16:41:47;;;;;;;26.40;16.98;;;5.20;99.90;;;;;;5114299;28;20100;-74
2021/12/05 16:44:26;;;;;;;30.40;17.45;;;5.20;99.90;;;;;;5114293;28;20043;-73
2021/12/05 16:46:55;;;;;;;27.75;16.38;;;5.10;99.90;;;;;;5113847;28;20050;-73
2021/12/05 16:49:31;;;;;;;26.50;15.60;;;5.20;99.90;;;;;;5113957;28;20036;-73
2021/12/05 16:52:00;;;;;;;28.48;16.25;;;5.20;99.90;;;;;;5112716;28;20052;-73
2021/12/05 16:54:50;;;;;;;28.15;16.98;;;5.20;99.90;;;;;;5113883;28;20035;-73
2021/12/05 16:57:20;;;;;;;29.42;16.95;;;5.10;99.90;;;;;;5116571;28;20040;-74
2021/12/05 16:59:52;;;;;;;28.73;16.50;;;5.10;99.90;;;;;;5134460;27;20039;-74
2021/12/05 17:02:24;;;;;;;25.58;16.70;;;5.10;99.90;;;;;;5134368;27;20046;-74
2021/12/05 17:05:04;;;;;;;27.83;17.00;;;5.20;99.90;;;;;;5134766;27;20081;-74
2021/12/05 17:08:08;;;;;;;22.10;14.70;;;5.10;99.90;;;;;;5132802;27;20095;-75
2021/12/05 17:10:48;;;;;;;29.42;16.80;;;5.10;99.90;;;;;;5133618;27;20488;-75
2021/12/05 17:13:27;;;;;;;27.65;15.82;;;5.00;99.90;;;;;;5134493;27;20126;-74
2021/12/05 17:16:10;;;;;;;26.02;16.45;;;4.90;99.90;;;;;;5133869;27;20167;-75
2021/12/05 17:18:37;;;;;;;25.67;15.57;;;4.90;99.90;;;;;;5132856;28;20047;-73
2021/12/05 17:21:12;;;;;;;26.75;15.90;;;4.90;99.90;;;;;;5134509;27;20046;-74
2021/12/05 17:23:47;;;;;;;23.48;15.43;;;4.90;99.90;;;;;;5134537;27;20067;-74
2021/12/05 17:26:19;;;;;;;27.15;15.32;;;4.70;99.90;;;;;;5133522;28;20492;-74
2021/12/05 17:29:19;;;;;;;26.02;15.95;;;4.80;99.90;;;;;;5134113;27;20043;-74
2021/12/05 17:31:49;;;;;;;24.38;16.13;;;4.80;99.90;;;;;;5134072;27;20047;-74
2021/12/05 17:34:26;;;;;;;28.23;16.60;;;4.70;99.90;;;;;;5132767;27;20392;-73
2021/12/05 17:37:01;;;;;;;27.38;15.73;;;4.70;99.90;;;;;;5137688;27;20453;-73
2021/12/05 17:39:31;;;;;;;23.70;15.00;;;4.60;99.90;;;;;;5137162;27;20043;-73
2021/12/05 17:42:02;;;;;;;25.70;15.13;;;4.60;99.90;;;;;;5138140;27;20043;-73
2021/12/05 17:44:28;;;;;;;27.27;16.92;;;4.50;99.90;;;;;;5137982;27;20385;-73
2021/12/05 17:46:58;;;;;;;25.42;15.65;;;4.40;99.90;;;;;;5137481;27;20476;-74
2021/12/05 17:49:26;;;;;;;26.67;14.88;;;4.40;99.90;;;;;;5138023;27;20042;-74
2021/12/05 17:51:52;;;;;;;26.15;15.88;;;4.30;99.90;;;;;;5137795;27;20050;-74
2021/12/05 17:54:32;;;;;;;26.38;15.52;;;4.40;99.90;;;;;;5138112;27;20044;-74
2021/12/05 17:57:06;;;;;;;27.05;14.68;;;4.40;99.90;;;;;;5136100;27;20522;-73
2021/12/05 18:05:11;;;;;;;23.60;15.40;;;4.20;99.90;;;;;;5136308;27;20078;-73
2021/12/05 18:07:36;;;;;;;24.33;15.90;;;4.20;99.90;;;;;;5137035;27;20051;-73
2021/12/05 18:10:04;;;;;;;25.48;15.77;;;4.20;99.90;;;;;;5137933;27;20615;-74
2021/12/05 18:12:34;;;;;;;24.42;15.43;;;4.20;99.90;;;;;;5135630;27;20518;-73
2021/12/05 18:15:04;;;;;;;27.40;16.30;;;4.20;99.90;;;;;;5137415;27;20510;-72
2021/12/05 18:17:30;;;;;;;29.60;16.70;;;4.10;99.90;;;;;;5135761;27;20118;-72
2021/12/05 18:19:56;;;;;;;28.70;17.83;;;4.10;99.90;;;;;;5137168;27;20235;-72
2021/12/05 18:22:21;;;;;;;30.00;17.85;;;4.10;99.90;;;;;;5137273;27;20175;-73
2021/12/05 18:24:47;;;;;;;27.10;16.70;;;4.10;99.90;;;;;;5137548;27;20113;-74
2021/12/05 18:27:14;;;;;;;24.95;15.93;;;4.00;99.90;;;;;;5136891;27;20035;-73